Seafriend — 9HA3308 — position and weather

sailwx.info

Track history (hours):
 
Tides and Currents Weather Stations Pressure Air Temp Water Temp Dewpoint Dewpoint Depression Visibility Wind Speed Wind Dir Waves Ship Positions

Seafriend

Last reported at 2018-Jun-17 00:01 UTC. Time now 2018-Jul-21 00:03 UTC.
Position S 24°32' W 046°32'.
Warning: this ship's position is 34 days out of date.

Length 183 m; draft 8.8 m.

Type: Tanker. MMSI: 229407000.

Date/timePositionNaut miles runAvg speedWind from/ knotsBaromVisibWave heightAir tempDewpointWater temp
2018-Jun-17 00:01S 24°32' W 046°32'111.6
2018-Jun-16 23:58S 24°31' W 046°32'511.6
2018-Jun-16 23:31S 24°27' W 046°30'611.5
2018-Jun-16 23:01S 24°21' W 046°27'611.4
2018-Jun-16 22:31S 24°16' W 046°25'611.9
2018-Jun-16 22:01S 24°10' W 046°24'611.8
2018-Jun-16 21:30S 24°05' W 046°22'5 8.6
2018-Jun-16 20:59S 24°00' W 046°20'  
2018-Jun-13 07:44S 23°60' W 046°18'2 7.5
2018-Jun-13 07:30S 24°00' W 046°20'3 6.9
2018-Jun-13 07:00S 24°04' W 046°21'2 3.1
2018-Jun-13 06:30S 24°05' W 046°20'0 0.2
2018-Jun-13 06:00S 24°05' W 046°20'0 0.1
2018-Jun-13 05:30S 24°05' W 046°20'0 0.0
2018-Jun-13 05:00S 24°05' W 046°20'0 0.0
2018-Jun-13 03:51S 24°05' W 046°20'0 0.0
2018-Jun-13 03:30S 24°05' W 046°20'0 0.1
2018-Jun-13 03:00S 24°04' W 046°20'0 0.0
2018-Jun-13 02:24S 24°04' W 046°20'0 0.0
2018-Jun-13 01:54S 24°04' W 046°20'0 0.1
2018-Jun-13 01:27S 24°04' W 046°20'0 0.1
2018-Jun-13 01:00S 24°04' W 046°20'0 0.1
2018-Jun-13 00:30S 24°05' W 046°20'0 0.1
2018-Jun-13 00:00S 24°05' W 046°20'0 0.1
2018-Jun-12 23:24S 24°05' W 046°20'0 0.0
2018-Jun-12 23:00S 24°05' W 046°20'0 0.0
2018-Jun-12 22:30S 24°05' W 046°20'0 0.0
2018-Jun-12 22:00S 24°05' W 046°20'0 0.0
2018-Jun-12 21:30S 24°05' W 046°20'0 0.0
2018-Jun-12 21:00S 24°05' W 046°20'0 0.0
2018-Jun-12 20:30S 24°05' W 046°20'0 0.0
2018-Jun-12 20:00S 24°05' W 046°20'0 0.0
2018-Jun-12 19:30S 24°05' W 046°20'0 0.1
2018-Jun-12 18:54S 24°05' W 046°20'0 0.0
2018-Jun-12 18:24S 24°05' W 046°20'0 0.1
2018-Jun-12 18:00S 24°05' W 046°20'0 0.0
2018-Jun-12 17:09S 24°05' W 046°20'0 0.0
2018-Jun-12 16:48S 24°05' W 046°20'0 0.0
2018-Jun-12 16:30S 24°05' W 046°20'0 0.0
2018-Jun-12 16:00S 24°05' W 046°20'0 0.0
2018-Jun-12 15:00S 24°05' W 046°20'0 0.0
2018-Jun-12 14:30S 24°05' W 046°20'0 0.1
2018-Jun-12 14:00S 24°05' W 046°20'0 0.1
2018-Jun-12 13:27S 24°05' W 046°20'0 0.1
2018-Jun-12 13:00S 24°05' W 046°20'0 0.0
2018-Jun-12 12:30S 24°05' W 046°20'0 0.0
2018-Jun-12 12:00S 24°05' W 046°20'0 0.0
2018-Jun-12 11:30S 24°05' W 046°20'0 0.0
2018-Jun-12 11:00S 24°05' W 046°20'0 0.0
2018-Jun-12 10:27S 24°05' W 046°20'0 0.0
2018-Jun-12 10:00S 24°05' W 046°20'0 0.0
2018-Jun-12 09:30S 24°05' W 046°20'0 0.0
2018-Jun-12 09:00S 24°05' W 046°20'0 0.0
2018-Jun-12 08:30S 24°05' W 046°20'0 0.0
2018-Jun-12 08:00S 24°05' W 046°20'0 0.0
2018-Jun-12 07:30S 24°05' W 046°20'0 0.0
2018-Jun-12 07:00S 24°05' W 046°20'0 0.0
2018-Jun-12 06:30S 24°05' W 046°20'0 0.0
2018-Jun-12 06:00S 24°05' W 046°20'0 0.0
2018-Jun-12 05:30S 24°05' W 046°20'0 0.1
2018-Jun-12 04:54S 24°05' W 046°20'0 0.0
2018-Jun-12 04:30S 24°05' W 046°20'0 0.1
2018-Jun-12 03:57S 24°05' W 046°20'0 0.0
2018-Jun-12 03:30S 24°05' W 046°20'0 0.0
2018-Jun-12 03:00S 24°05' W 046°20'0 0.0
2018-Jun-12 02:30S 24°05' W 046°20'0 0.0
2018-Jun-12 02:00S 24°05' W 046°20'0 0.0
2018-Jun-12 01:30S 24°05' W 046°20'0 0.0
2018-Jun-12 01:00S 24°05' W 046°20'0 0.0
2018-Jun-12 00:30S 24°05' W 046°20'0 0.0
2018-Jun-12 00:00S 24°05' W 046°20'0 0.0
2018-Jun-11 23:30S 24°05' W 046°20'0 0.1
2018-Jun-11 23:00S 24°05' W 046°20'0 0.0
2018-Jun-11 22:30S 24°05' W 046°20'0 0.0
2018-Jun-11 21:42S 24°05' W 046°20'0 0.0
2018-Jun-11 21:24S 24°05' W 046°20'0 0.0
2018-Jun-11 21:00S 24°05' W 046°20'0 0.0
2018-Jun-11 19:54S 24°05' W 046°20'0 0.0
2018-Jun-11 19:30S 24°05' W 046°20'0 0.0
2018-Jun-11 18:54S 24°05' W 046°20'0 0.0
2018-Jun-11 18:30S 24°05' W 046°20'0 0.0
2018-Jun-11 18:00S 24°05' W 046°20'0 0.0
2018-Jun-11 17:27S 24°05' W 046°20'0 0.0
2018-Jun-11 17:00S 24°05' W 046°20'0 0.0
2018-Jun-11 16:30S 24°05' W 046°20'0 0.0
2018-Jun-11 16:00S 24°05' W 046°20'0 0.0
2018-Jun-11 15:30S 24°05' W 046°20'0 0.0
2018-Jun-11 15:00S 24°05' W 046°20'0 0.0
2018-Jun-11 14:30S 24°05' W 046°20'0 0.0
2018-Jun-11 14:00S 24°05' W 046°20'0 0.0
2018-Jun-11 13:30S 24°05' W 046°20'0 0.0
2018-Jun-11 13:00S 24°05' W 046°20'0 0.0
2018-Jun-11 12:18S 24°05' W 046°20'0 0.0
2018-Jun-11 12:00S 24°05' W 046°20'0 0.0
2018-Jun-11 11:30S 24°05' W 046°20'0 0.0
2018-Jun-11 11:00S 24°05' W 046°20'0 0.0
2018-Jun-11 10:30S 24°05' W 046°20'0 0.0
2018-Jun-11 10:00S 24°05' W 046°20'0 0.0
2018-Jun-11 09:30S 24°05' W 046°20'0 0.1
2018-Jun-11 09:00S 24°05' W 046°20'0 0.0
2018-Jun-11 08:30S 24°05' W 046°20'0 0.0
2018-Jun-11 08:00S 24°05' W 046°20'0 0.0
2018-Jun-11 07:30S 24°05' W 046°20'0 0.0
2018-Jun-11 06:57S 24°05' W 046°20'0 0.0
2018-Jun-11 06:27S 24°05' W 046°20'0 0.0
2018-Jun-11 06:00S 24°05' W 046°20'0 0.0
2018-Jun-11 05:30S 24°05' W 046°20'0 0.1
2018-Jun-11 05:00S 24°05' W 046°20'0 0.0
2018-Jun-11 04:30S 24°05' W 046°20'0 0.0
2018-Jun-11 04:00S 24°05' W 046°20'0 0.0
2018-Jun-11 03:30S 24°05' W 046°20'0 0.0
2018-Jun-11 03:00S 24°05' W 046°20'0 0.0
2018-Jun-11 02:30S 24°05' W 046°20'0 0.1
2018-Jun-11 02:00S 24°05' W 046°20'0 0.0
2018-Jun-11 01:30S 24°05' W 046°20'0 0.0
2018-Jun-11 01:00S 24°05' W 046°20'0 0.0
2018-Jun-11 00:30S 24°05' W 046°20'0 0.0
2018-Jun-11 00:00S 24°05' W 046°20'0 0.0
2018-Jun-10 23:30S 24°05' W 046°20'0 0.0
2018-Jun-10 23:00S 24°05' W 046°20'0 0.0
2018-Jun-10 22:27S 24°05' W 046°20'0 0.1
2018-Jun-10 22:00S 24°05' W 046°20'0 0.2
2018-Jun-10 21:30S 24°05' W 046°20'0 0.1
2018-Jun-10 21:00S 24°05' W 046°20'0 0.1
2018-Jun-10 20:30S 24°05' W 046°20'0 0.0
2018-Jun-10 20:00S 24°05' W 046°20'0 0.0
2018-Jun-10 19:30S 24°05' W 046°20'0 0.0
2018-Jun-10 19:00S 24°05' W 046°20'0 0.0
2018-Jun-10 18:30S 24°05' W 046°20'0 0.0
2018-Jun-10 18:00S 24°05' W 046°20'0 0.0
2018-Jun-10 17:30S 24°05' W 046°20'0 0.0
2018-Jun-10 17:00S 24°05' W 046°20'0 0.0
2018-Jun-10 16:30S 24°05' W 046°20'0 0.0
2018-Jun-10 16:00S 24°05' W 046°20'0 0.0
2018-Jun-10 15:30S 24°05' W 046°20'0 0.0
2018-Jun-10 15:00S 24°05' W 046°20'0 0.0
2018-Jun-10 14:24S 24°05' W 046°20'0 0.0
2018-Jun-10 13:30S 24°05' W 046°20'0 0.0
2018-Jun-10 13:00S 24°05' W 046°20'0 0.0
2018-Jun-10 12:30S 24°05' W 046°20'0 0.0
2018-Jun-10 11:57S 24°05' W 046°20'0 0.0
2018-Jun-10 11:30S 24°05' W 046°20'0 0.0
2018-Jun-10 11:00S 24°05' W 046°20'0 0.0
2018-Jun-10 10:30S 24°05' W 046°20'0 0.0
2018-Jun-10 10:00S 24°05' W 046°20'0 0.0
2018-Jun-10 09:30S 24°05' W 046°20'0 0.0
2018-Jun-10 08:56S 24°05' W 046°20'0 0.0
2018-Jun-10 08:30S 24°05' W 046°20'0 0.0
2018-Jun-10 08:00S 24°05' W 046°20'0 0.0
2018-Jun-10 07:24S 24°05' W 046°20'0 0.0
2018-Jun-10 06:54S 24°05' W 046°20'0 0.0
2018-Jun-10 06:30S 24°05' W 046°20'0 0.0
2018-Jun-10 06:00S 24°05' W 046°20'0 0.0
2018-Jun-10 05:30S 24°05' W 046°20'0 0.0
2018-Jun-10 05:00S 24°05' W 046°20'0 0.0
2018-Jun-10 04:30S 24°05' W 046°20'0 0.0
2018-Jun-10 04:00S 24°05' W 046°20'0 0.0
2018-Jun-10 03:30S 24°05' W 046°20'0 0.0
2018-Jun-10 03:00S 24°05' W 046°20'0 0.0
2018-Jun-10 02:30S 24°05' W 046°20'0 0.0
2018-Jun-10 02:00S 24°05' W 046°20'0 0.0
2018-Jun-10 01:30S 24°05' W 046°20'0 0.0
2018-Jun-10 01:00S 24°05' W 046°20'0 0.0
2018-Jun-10 00:27S 24°05' W 046°20'0 0.0
2018-Jun-10 00:00S 24°05' W 046°20'0 0.0
2018-Jun-09 23:30S 24°05' W 046°20'0 0.0
2018-Jun-09 23:00S 24°05' W 046°20'0 0.0
2018-Jun-09 22:24S 24°05' W 046°20'0 0.0
2018-Jun-09 21:54S 24°05' W 046°20'0 0.0
2018-Jun-09 21:29S 24°05' W 046°20'0 0.0
2018-Jun-09 21:00S 24°05' W 046°20'0 0.0
2018-Jun-09 20:29S 24°05' W 046°20'0 0.0
2018-Jun-09 20:00S 24°05' W 046°20'0 0.0
2018-Jun-09 19:27S 24°05' W 046°20'0 0.0
2018-Jun-09 19:00S 24°05' W 046°20'0 0.0
2018-Jun-09 18:30S 24°05' W 046°20'0 0.0
2018-Jun-09 18:00S 24°05' W 046°20'0 0.0
2018-Jun-09 17:26S 24°05' W 046°20'0 0.0
2018-Jun-09 17:00S 24°05' W 046°20'0 0.0
2018-Jun-09 16:29S 24°05' W 046°20'0 0.0
2018-Jun-09 16:00S 24°05' W 046°20'0 0.0
2018-Jun-09 14:59S 24°05' W 046°20'0 0.0
2018-Jun-09 14:27S 24°05' W 046°20'0 0.0
2018-Jun-09 14:00S 24°05' W 046°20'0 0.0
2018-Jun-09 13:29S 24°05' W 046°20'0 0.0
2018-Jun-09 12:59S 24°05' W 046°20'0 0.0
2018-Jun-09 12:29S 24°05' W 046°20'0 0.0
2018-Jun-09 12:00S 24°05' W 046°20'0 0.0
2018-Jun-09 11:29S 24°05' W 046°20'0 0.0
2018-Jun-09 10:59S 24°05' W 046°20'0 0.0
2018-Jun-09 10:29S 24°05' W 046°20'0 0.0
2018-Jun-09 09:57S 24°05' W 046°20'0 0.0
2018-Jun-09 09:29S 24°05' W 046°20'0 0.0
2018-Jun-09 09:00S 24°05' W 046°20'0 0.0
2018-Jun-09 08:29S 24°05' W 046°20'0 0.0
2018-Jun-09 07:59S 24°05' W 046°20'0 0.0
2018-Jun-09 07:29S 24°05' W 046°20'0 0.0
2018-Jun-09 06:53S 24°05' W 046°20'0 0.0
2018-Jun-09 06:30S 24°05' W 046°20'0 0.0
2018-Jun-09 05:59S 24°05' W 046°20'0 0.0
2018-Jun-09 05:29S 24°05' W 046°20'0 0.0
2018-Jun-09 04:59S 24°05' W 046°20'0 0.0
2018-Jun-09 04:23S 24°05' W 046°20'0 0.0
2018-Jun-09 03:59S 24°05' W 046°20'0 0.0
2018-Jun-09 03:29S 24°05' W 046°20'0 0.0
2018-Jun-09 02:59S 24°05' W 046°20'0 0.0
2018-Jun-09 02:29S 24°05' W 046°20'0 0.0
2018-Jun-09 01:56S 24°05' W 046°20'0 0.0
2018-Jun-09 01:29S 24°05' W 046°20'0 0.0
2018-Jun-09 00:59S 24°05' W 046°20'0 0.0
2018-Jun-09 00:29S 24°05' W 046°20'0 0.0
2018-Jun-08 23:59S 24°05' W 046°20'0 0.0
2018-Jun-08 23:29S 24°05' W 046°20'0 0.0
2018-Jun-08 22:59S 24°05' W 046°20'0 0.0
2018-Jun-08 22:24S 24°05' W 046°20'0 0.0
2018-Jun-08 21:56S 24°05' W 046°20'0 0.0
2018-Jun-08 21:29S 24°05' W 046°20'0 0.0
2018-Jun-08 20:50S 24°04' W 046°20'0 0.1
2018-Jun-08 20:29S 24°04' W 046°20'0 0.0
2018-Jun-08 19:59S 24°05' W 046°20'0 0.0
2018-Jun-08 19:29S 24°05' W 046°20'0 0.0
2018-Jun-08 18:59S 24°05' W 046°20'0 0.0
2018-Jun-08 18:29S 24°05' W 046°20'0 0.0
2018-Jun-08 17:56S 24°05' W 046°20'0 0.0
2018-Jun-08 17:29S 24°05' W 046°20'0 0.0
2018-Jun-08 16:56S 24°05' W 046°20'0 0.0
2018-Jun-08 16:29S 24°05' W 046°20'0 0.0
2018-Jun-08 15:59S 24°05' W 046°20'0 0.0
2018-Jun-08 15:29S 24°05' W 046°20'0 0.0
2018-Jun-08 14:59S 24°05' W 046°20'0 0.0
2018-Jun-08 14:26S 24°05' W 046°20'0 0.0
2018-Jun-08 13:59S 24°04' W 046°20'0 0.0
2018-Jun-08 13:26S 24°05' W 046°20'0 0.0
2018-Jun-08 12:59S 24°05' W 046°20'0 0.0
2018-Jun-08 12:29S 24°05' W 046°20'0 0.0
2018-Jun-08 11:59S 24°05' W 046°20'0 0.0
2018-Jun-08 11:29S 24°05' W 046°20'0 0.0
2018-Jun-08 10:53S 24°05' W 046°20'0 0.0
2018-Jun-08 10:29S 24°05' W 046°20'0 0.0
2018-Jun-08 09:53S 24°05' W 046°20'0 0.0
2018-Jun-08 09:26S 24°05' W 046°20'0 0.0
2018-Jun-08 08:59S 24°05' W 046°20'0 0.0
2018-Jun-08 08:29S 24°05' W 046°20'0 0.0
2018-Jun-08 07:59S 24°05' W 046°20'0 0.0
2018-Jun-08 07:26S 24°05' W 046°20'0 0.0
2018-Jun-08 06:50S 24°05' W 046°20'0 0.0
2018-Jun-08 06:29S 24°05' W 046°20'0 0.0
2018-Jun-08 05:59S 24°05' W 046°20'0 0.0
2018-Jun-08 05:29S 24°05' W 046°20'0 0.0
2018-Jun-08 04:59S 24°05' W 046°20'0 0.0
2018-Jun-08 04:29S 24°05' W 046°20'0 0.0
2018-Jun-08 03:53S 24°05' W 046°20'0 0.0
2018-Jun-08 03:26S 24°05' W 046°20'0 0.0
2018-Jun-08 02:59S 24°05' W 046°20'0 0.0
2018-Jun-08 02:29S 24°05' W 046°20'0 0.0
2018-Jun-08 01:56S 24°05' W 046°20'0 0.0
2018-Jun-08 01:29S 24°05' W 046°20'0 0.0
2018-Jun-08 00:56S 24°05' W 046°20'0 0.0
2018-Jun-08 00:26S 24°05' W 046°20'0 0.0
2018-Jun-07 23:59S 24°05' W 046°20'0 0.0
2018-Jun-07 23:29S 24°05' W 046°20'0 0.0
2018-Jun-07 22:59S 24°05' W 046°20'0 0.0
2018-Jun-07 22:29S 24°05' W 046°20'0 0.0
2018-Jun-07 21:59S 24°05' W 046°20'0 0.0
2018-Jun-07 21:29S 24°05' W 046°20'0 0.0
2018-Jun-07 20:59S 24°05' W 046°20'0 0.0
2018-Jun-07 20:23S 24°05' W 046°20'0 0.0
2018-Jun-07 19:59S 24°05' W 046°20'0 0.0
2018-Jun-07 19:29S 24°05' W 046°20'0 0.0
2018-Jun-07 18:59S 24°05' W 046°20'0 0.0
2018-Jun-07 18:20S 24°05' W 046°20'0 0.0
2018-Jun-07 17:59S 24°05' W 046°20'0 0.0
2018-Jun-07 17:29S 24°05' W 046°20'0 0.0
2018-Jun-07 16:59S 24°05' W 046°20'0 0.0
2018-Jun-07 16:29S 24°05' W 046°20'0 0.0
2018-Jun-07 15:59S 24°05' W 046°20'0 0.0
2018-Jun-07 15:20S 24°05' W 046°20'0 0.0
2018-Jun-07 14:59S 24°05' W 046°20'0 0.0
2018-Jun-07 14:29S 24°05' W 046°20'0 0.0
2018-Jun-07 13:59S 24°05' W 046°20'0 0.0
2018-Jun-07 13:29S 24°05' W 046°20'0 0.0
2018-Jun-07 12:53S 24°05' W 046°20'0 0.1
2018-Jun-07 12:30S 24°05' W 046°20'1 1.9
2018-Jun-07 12:00S 24°04' W 046°21'3 5.6
2018-Jun-07 11:30S 24°06' W 046°22'3 5.8
2018-Jun-07 11:00S 24°09' W 046°22'5 9.5
2018-Jun-07 10:30S 24°13' W 046°18'0 0.4
2018-Jun-07 09:55S 24°13' W 046°18'0 0.0
2018-Jun-07 09:28S 24°13' W 046°18'0 0.0
2018-Jun-07 08:52S 24°13' W 046°18'0 0.0
2018-Jun-07 08:19S 24°13' W 046°18'0 0.0
2018-Jun-07 07:58S 24°13' W 046°18'0 0.0
2018-Jun-07 07:28S 24°13' W 046°18'0 0.0
2018-Jun-07 06:58S 24°13' W 046°18'0 0.0
2018-Jun-07 06:28S 24°13' W 046°18'0 0.0
2018-Jun-07 05:55S 24°13' W 046°18'0 0.0
2018-Jun-07 05:28S 24°13' W 046°18'0 0.0
2018-Jun-07 04:58S 24°13' W 046°18'0 0.0
2018-Jun-07 04:28S 24°13' W 046°18'0 0.0
2018-Jun-07 03:58S 24°13' W 046°18'0 0.0
2018-Jun-07 03:28S 24°13' W 046°18'0 0.0
2018-Jun-07 02:58S 24°13' W 046°18'0 0.0
2018-Jun-07 02:22S 24°13' W 046°18'0 0.0
2018-Jun-07 01:58S 24°13' W 046°18'0 0.0
2018-Jun-07 01:28S 24°13' W 046°18'0 0.0
2018-Jun-07 00:58S 24°13' W 046°18'0 0.0
2018-Jun-07 00:28S 24°13' W 046°18'  
Track history (hours):
 
Tides and Currents Weather Stations Pressure Air Temp Water Temp Dewpoint Dewpoint Depression Visibility Wind Speed Wind Dir Waves Ship Positions

Seafriend

Last reported at 2018-Jun-17 00:01 UTC. Time now 2018-Jul-21 00:03 UTC.
Position S 24°32' W 046°32'.
Warning: this ship's position is 34 days out of date.

Length 183 m; draft 8.8 m.

Type: Tanker. MMSI: 229407000.

Date/timePositionNaut miles runAvg speedWind from/ knotsBaromVisibWave heightAir tempDewpointWater temp
2018-Jun-17 00:01S 24°32' W 046°32'111.6
2018-Jun-16 23:58S 24°31' W 046°32'511.6
2018-Jun-16 23:31S 24°27' W 046°30'611.5
2018-Jun-16 23:01S 24°21' W 046°27'611.4
2018-Jun-16 22:31S 24°16' W 046°25'611.9
2018-Jun-16 22:01S 24°10' W 046°24'611.8
2018-Jun-16 21:30S 24°05' W 046°22'5 8.6
2018-Jun-16 20:59S 24°00' W 046°20'  
2018-Jun-13 07:44S 23°60' W 046°18'2 7.5
2018-Jun-13 07:30S 24°00' W 046°20'3 6.9
2018-Jun-13 07:00S 24°04' W 046°21'2 3.1
2018-Jun-13 06:30S 24°05' W 046°20'0 0.2
2018-Jun-13 06:00S 24°05' W 046°20'0 0.1
2018-Jun-13 05:30S 24°05' W 046°20'0 0.0
2018-Jun-13 05:00S 24°05' W 046°20'0 0.0
2018-Jun-13 03:51S 24°05' W 046°20'0 0.0
2018-Jun-13 03:30S 24°05' W 046°20'0 0.1
2018-Jun-13 03:00S 24°04' W 046°20'0 0.0
2018-Jun-13 02:24S 24°04' W 046°20'0 0.0
2018-Jun-13 01:54S 24°04' W 046°20'0 0.1
2018-Jun-13 01:27S 24°04' W 046°20'0 0.1
2018-Jun-13 01:00S 24°04' W 046°20'0 0.1
2018-Jun-13 00:30S 24°05' W 046°20'0 0.1
2018-Jun-13 00:00S 24°05' W 046°20'0 0.1
2018-Jun-12 23:24S 24°05' W 046°20'0 0.0
2018-Jun-12 23:00S 24°05' W 046°20'0 0.0
2018-Jun-12 22:30S 24°05' W 046°20'0 0.0
2018-Jun-12 22:00S 24°05' W 046°20'0 0.0
2018-Jun-12 21:30S 24°05' W 046°20'0 0.0
2018-Jun-12 21:00S 24°05' W 046°20'0 0.0
2018-Jun-12 20:30S 24°05' W 046°20'0 0.0
2018-Jun-12 20:00S 24°05' W 046°20'0 0.0
2018-Jun-12 19:30S 24°05' W 046°20'0 0.1
2018-Jun-12 18:54S 24°05' W 046°20'0 0.0
2018-Jun-12 18:24S 24°05' W 046°20'0 0.1
2018-Jun-12 18:00S 24°05' W 046°20'0 0.0
2018-Jun-12 17:09S 24°05' W 046°20'0 0.0
2018-Jun-12 16:48S 24°05' W 046°20'0 0.0
2018-Jun-12 16:30S 24°05' W 046°20'0 0.0
2018-Jun-12 16:00S 24°05' W 046°20'0 0.0
2018-Jun-12 15:00S 24°05' W 046°20'0 0.0
2018-Jun-12 14:30S 24°05' W 046°20'0 0.1
2018-Jun-12 14:00S 24°05' W 046°20'0 0.1
2018-Jun-12 13:27S 24°05' W 046°20'0 0.1
2018-Jun-12 13:00S 24°05' W 046°20'0 0.0
2018-Jun-12 12:30S 24°05' W 046°20'0 0.0
2018-Jun-12 12:00S 24°05' W 046°20'0 0.0
2018-Jun-12 11:30S 24°05' W 046°20'0 0.0
2018-Jun-12 11:00S 24°05' W 046°20'0 0.0
2018-Jun-12 10:27S 24°05' W 046°20'0 0.0
2018-Jun-12 10:00S 24°05' W 046°20'0 0.0
2018-Jun-12 09:30S 24°05' W 046°20'0 0.0
2018-Jun-12 09:00S 24°05' W 046°20'0 0.0
2018-Jun-12 08:30S 24°05' W 046°20'0 0.0
2018-Jun-12 08:00S 24°05' W 046°20'0 0.0
2018-Jun-12 07:30S 24°05' W 046°20'0 0.0
2018-Jun-12 07:00S 24°05' W 046°20'0 0.0
2018-Jun-12 06:30S 24°05' W 046°20'0 0.0
2018-Jun-12 06:00S 24°05' W 046°20'0 0.0
2018-Jun-12 05:30S 24°05' W 046°20'0 0.1
2018-Jun-12 04:54S 24°05' W 046°20'0 0.0
2018-Jun-12 04:30S 24°05' W 046°20'0 0.1
2018-Jun-12 03:57S 24°05' W 046°20'0 0.0
2018-Jun-12 03:30S 24°05' W 046°20'0 0.0
2018-Jun-12 03:00S 24°05' W 046°20'0 0.0
2018-Jun-12 02:30S 24°05' W 046°20'0 0.0
2018-Jun-12 02:00S 24°05' W 046°20'0 0.0
2018-Jun-12 01:30S 24°05' W 046°20'0 0.0
2018-Jun-12 01:00S 24°05' W 046°20'0 0.0
2018-Jun-12 00:30S 24°05' W 046°20'0 0.0
2018-Jun-12 00:00S 24°05' W 046°20'0 0.0
2018-Jun-11 23:30S 24°05' W 046°20'0 0.1
2018-Jun-11 23:00S 24°05' W 046°20'0 0.0
2018-Jun-11 22:30S 24°05' W 046°20'0 0.0
2018-Jun-11 21:42S 24°05' W 046°20'0 0.0
2018-Jun-11 21:24S 24°05' W 046°20'0 0.0
2018-Jun-11 21:00S 24°05' W 046°20'0 0.0
2018-Jun-11 19:54S 24°05' W 046°20'0 0.0
2018-Jun-11 19:30S 24°05' W 046°20'0 0.0
2018-Jun-11 18:54S 24°05' W 046°20'0 0.0
2018-Jun-11 18:30S 24°05' W 046°20'0 0.0
2018-Jun-11 18:00S 24°05' W 046°20'0 0.0
2018-Jun-11 17:27S 24°05' W 046°20'0 0.0
2018-Jun-11 17:00S 24°05' W 046°20'0 0.0
2018-Jun-11 16:30S 24°05' W 046°20'0 0.0
2018-Jun-11 16:00S 24°05' W 046°20'0 0.0
2018-Jun-11 15:30S 24°05' W 046°20'0 0.0
2018-Jun-11 15:00S 24°05' W 046°20'0 0.0
2018-Jun-11 14:30S 24°05' W 046°20'0 0.0
2018-Jun-11 14:00S 24°05' W 046°20'0 0.0
2018-Jun-11 13:30S 24°05' W 046°20'0 0.0
2018-Jun-11 13:00S 24°05' W 046°20'0 0.0
2018-Jun-11 12:18S 24°05' W 046°20'0 0.0
2018-Jun-11 12:00S 24°05' W 046°20'0 0.0
2018-Jun-11 11:30S 24°05' W 046°20'0 0.0
2018-Jun-11 11:00S 24°05' W 046°20'0 0.0
2018-Jun-11 10:30S 24°05' W 046°20'0 0.0
2018-Jun-11 10:00S 24°05' W 046°20'0 0.0
2018-Jun-11 09:30S 24°05' W 046°20'0 0.1
2018-Jun-11 09:00S 24°05' W 046°20'0 0.0
2018-Jun-11 08:30S 24°05' W 046°20'0 0.0
2018-Jun-11 08:00S 24°05' W 046°20'0 0.0
2018-Jun-11 07:30S 24°05' W 046°20'0 0.0
2018-Jun-11 06:57S 24°05' W 046°20'0 0.0
2018-Jun-11 06:27S 24°05' W 046°20'0 0.0
2018-Jun-11 06:00S 24°05' W 046°20'0 0.0
2018-Jun-11 05:30S 24°05' W 046°20'0 0.1
2018-Jun-11 05:00S 24°05' W 046°20'0 0.0
2018-Jun-11 04:30S 24°05' W 046°20'0 0.0
2018-Jun-11 04:00S 24°05' W 046°20'0 0.0
2018-Jun-11 03:30S 24°05' W 046°20'0 0.0
2018-Jun-11 03:00S 24°05' W 046°20'0 0.0
2018-Jun-11 02:30S 24°05' W 046°20'0 0.1
2018-Jun-11 02:00S 24°05' W 046°20'0 0.0
2018-Jun-11 01:30S 24°05' W 046°20'0 0.0
2018-Jun-11 01:00S 24°05' W 046°20'0 0.0
2018-Jun-11 00:30S 24°05' W 046°20'0 0.0
2018-Jun-11 00:00S 24°05' W 046°20'0 0.0
2018-Jun-10 23:30S 24°05' W 046°20'0 0.0
2018-Jun-10 23:00S 24°05' W 046°20'0 0.0
2018-Jun-10 22:27S 24°05' W 046°20'0 0.1
2018-Jun-10 22:00S 24°05' W 046°20'0 0.2
2018-Jun-10 21:30S 24°05' W 046°20'0 0.1
2018-Jun-10 21:00S 24°05' W 046°20'0 0.1
2018-Jun-10 20:30S 24°05' W 046°20'0 0.0
2018-Jun-10 20:00S 24°05' W 046°20'0 0.0
2018-Jun-10 19:30S 24°05' W 046°20'0 0.0
2018-Jun-10 19:00S 24°05' W 046°20'0 0.0
2018-Jun-10 18:30S 24°05' W 046°20'0 0.0
2018-Jun-10 18:00S 24°05' W 046°20'0 0.0
2018-Jun-10 17:30S 24°05' W 046°20'0 0.0
2018-Jun-10 17:00S 24°05' W 046°20'0 0.0
2018-Jun-10 16:30S 24°05' W 046°20'0 0.0
2018-Jun-10 16:00S 24°05' W 046°20'0 0.0
2018-Jun-10 15:30S 24°05' W 046°20'0 0.0
2018-Jun-10 15:00S 24°05' W 046°20'0 0.0
2018-Jun-10 14:24S 24°05' W 046°20'0 0.0
2018-Jun-10 13:30S 24°05' W 046°20'0 0.0
2018-Jun-10 13:00S 24°05' W 046°20'0 0.0
2018-Jun-10 12:30S 24°05' W 046°20'0 0.0
2018-Jun-10 11:57S 24°05' W 046°20'0 0.0
2018-Jun-10 11:30S 24°05' W 046°20'0 0.0
2018-Jun-10 11:00S 24°05' W 046°20'0 0.0
2018-Jun-10 10:30S 24°05' W 046°20'0 0.0
2018-Jun-10 10:00S 24°05' W 046°20'0 0.0
2018-Jun-10 09:30S 24°05' W 046°20'0 0.0
2018-Jun-10 08:56S 24°05' W 046°20'0 0.0
2018-Jun-10 08:30S 24°05' W 046°20'0 0.0
2018-Jun-10 08:00S 24°05' W 046°20'0 0.0
2018-Jun-10 07:24S 24°05' W 046°20'0 0.0
2018-Jun-10 06:54S 24°05' W 046°20'0 0.0
2018-Jun-10 06:30S 24°05' W 046°20'0 0.0
2018-Jun-10 06:00S 24°05' W 046°20'0 0.0
2018-Jun-10 05:30S 24°05' W 046°20'0 0.0
2018-Jun-10 05:00S 24°05' W 046°20'0 0.0
2018-Jun-10 04:30S 24°05' W 046°20'0 0.0
2018-Jun-10 04:00S 24°05' W 046°20'0 0.0
2018-Jun-10 03:30S 24°05' W 046°20'0 0.0
2018-Jun-10 03:00S 24°05' W 046°20'0 0.0
2018-Jun-10 02:30S 24°05' W 046°20'0 0.0
2018-Jun-10 02:00S 24°05' W 046°20'0 0.0
2018-Jun-10 01:30S 24°05' W 046°20'0 0.0
2018-Jun-10 01:00S 24°05' W 046°20'0 0.0
2018-Jun-10 00:27S 24°05' W 046°20'0 0.0
2018-Jun-10 00:00S 24°05' W 046°20'0 0.0
2018-Jun-09 23:30S 24°05' W 046°20'0 0.0
2018-Jun-09 23:00S 24°05' W 046°20'0 0.0
2018-Jun-09 22:24S 24°05' W 046°20'0 0.0
2018-Jun-09 21:54S 24°05' W 046°20'0 0.0
2018-Jun-09 21:29S 24°05' W 046°20'0 0.0
2018-Jun-09 21:00S 24°05' W 046°20'0 0.0
2018-Jun-09 20:29S 24°05' W 046°20'0 0.0
2018-Jun-09 20:00S 24°05' W 046°20'0 0.0
2018-Jun-09 19:27S 24°05' W 046°20'0 0.0
2018-Jun-09 19:00S 24°05' W 046°20'0 0.0
2018-Jun-09 18:30S 24°05' W 046°20'0 0.0
2018-Jun-09 18:00S 24°05' W 046°20'0 0.0
2018-Jun-09 17:26S 24°05' W 046°20'0 0.0
2018-Jun-09 17:00S 24°05' W 046°20'0 0.0
2018-Jun-09 16:29S 24°05' W 046°20'0 0.0
2018-Jun-09 16:00S 24°05' W 046°20'0 0.0
2018-Jun-09 14:59S 24°05' W 046°20'0 0.0
2018-Jun-09 14:27S 24°05' W 046°20'0 0.0
2018-Jun-09 14:00S 24°05' W 046°20'0 0.0
2018-Jun-09 13:29S 24°05' W 046°20'0 0.0
2018-Jun-09 12:59S 24°05' W 046°20'0 0.0
2018-Jun-09 12:29S 24°05' W 046°20'0 0.0
2018-Jun-09 12:00S 24°05' W 046°20'0 0.0
2018-Jun-09 11:29S 24°05' W 046°20'0 0.0
2018-Jun-09 10:59S 24°05' W 046°20'0 0.0
2018-Jun-09 10:29S 24°05' W 046°20'0 0.0
2018-Jun-09 09:57S 24°05' W 046°20'0 0.0
2018-Jun-09 09:29S 24°05' W 046°20'0 0.0
2018-Jun-09 09:00S 24°05' W 046°20'0 0.0
2018-Jun-09 08:29S 24°05' W 046°20'0 0.0
2018-Jun-09 07:59S 24°05' W 046°20'0 0.0
2018-Jun-09 07:29S 24°05' W 046°20'0 0.0
2018-Jun-09 06:53S 24°05' W 046°20'0 0.0
2018-Jun-09 06:30S 24°05' W 046°20'0 0.0
2018-Jun-09 05:59S 24°05' W 046°20'0 0.0
2018-Jun-09 05:29S 24°05' W 046°20'0 0.0
2018-Jun-09 04:59S 24°05' W 046°20'0 0.0
2018-Jun-09 04:23S 24°05' W 046°20'0 0.0
2018-Jun-09 03:59S 24°05' W 046°20'0 0.0
2018-Jun-09 03:29S 24°05' W 046°20'0 0.0
2018-Jun-09 02:59S 24°05' W 046°20'0 0.0
2018-Jun-09 02:29S 24°05' W 046°20'0 0.0
2018-Jun-09 01:56S 24°05' W 046°20'0 0.0
2018-Jun-09 01:29S 24°05' W 046°20'0 0.0
2018-Jun-09 00:59S 24°05' W 046°20'0 0.0
2018-Jun-09 00:29S 24°05' W 046°20'0 0.0
2018-Jun-08 23:59S 24°05' W 046°20'0 0.0
2018-Jun-08 23:29S 24°05' W 046°20'0 0.0
2018-Jun-08 22:59S 24°05' W 046°20'0 0.0
2018-Jun-08 22:24S 24°05' W 046°20'0 0.0
2018-Jun-08 21:56S 24°05' W 046°20'0 0.0
2018-Jun-08 21:29S 24°05' W 046°20'0 0.0
2018-Jun-08 20:50S 24°04' W 046°20'0 0.1
2018-Jun-08 20:29S 24°04' W 046°20'0 0.0
2018-Jun-08 19:59S 24°05' W 046°20'0 0.0
2018-Jun-08 19:29S 24°05' W 046°20'0 0.0
2018-Jun-08 18:59S 24°05' W 046°20'0 0.0
2018-Jun-08 18:29S 24°05' W 046°20'0 0.0
2018-Jun-08 17:56S 24°05' W 046°20'0 0.0
2018-Jun-08 17:29S 24°05' W 046°20'0 0.0
2018-Jun-08 16:56S 24°05' W 046°20'0 0.0
2018-Jun-08 16:29S 24°05' W 046°20'0 0.0
2018-Jun-08 15:59S 24°05' W 046°20'0 0.0
2018-Jun-08 15:29S 24°05' W 046°20'0 0.0
2018-Jun-08 14:59S 24°05' W 046°20'0 0.0
2018-Jun-08 14:26S 24°05' W 046°20'0 0.0
2018-Jun-08 13:59S 24°04' W 046°20'0 0.0
2018-Jun-08 13:26S 24°05' W 046°20'0 0.0
2018-Jun-08 12:59S 24°05' W 046°20'0 0.0
2018-Jun-08 12:29S 24°05' W 046°20'0 0.0
2018-Jun-08 11:59S 24°05' W 046°20'0 0.0
2018-Jun-08 11:29S 24°05' W 046°20'0 0.0
2018-Jun-08 10:53S 24°05' W 046°20'0 0.0
2018-Jun-08 10:29S 24°05' W 046°20'0 0.0
2018-Jun-08 09:53S 24°05' W 046°20'0 0.0
2018-Jun-08 09:26S 24°05' W 046°20'0 0.0
2018-Jun-08 08:59S 24°05' W 046°20'0 0.0
2018-Jun-08 08:29S 24°05' W 046°20'0 0.0
2018-Jun-08 07:59S 24°05' W 046°20'0 0.0
2018-Jun-08 07:26S 24°05' W 046°20'0 0.0
2018-Jun-08 06:50S 24°05' W 046°20'0 0.0
2018-Jun-08 06:29S 24°05' W 046°20'0 0.0
2018-Jun-08 05:59S 24°05' W 046°20'0 0.0
2018-Jun-08 05:29S 24°05' W 046°20'0 0.0
2018-Jun-08 04:59S 24°05' W 046°20'0 0.0
2018-Jun-08 04:29S 24°05' W 046°20'0 0.0
2018-Jun-08 03:53S 24°05' W 046°20'0 0.0
2018-Jun-08 03:26S 24°05' W 046°20'0 0.0
2018-Jun-08 02:59S 24°05' W 046°20'0 0.0
2018-Jun-08 02:29S 24°05' W 046°20'0 0.0
2018-Jun-08 01:56S 24°05' W 046°20'0 0.0
2018-Jun-08 01:29S 24°05' W 046°20'0 0.0
2018-Jun-08 00:56S 24°05' W 046°20'0 0.0
2018-Jun-08 00:26S 24°05' W 046°20'0 0.0
2018-Jun-07 23:59S 24°05' W 046°20'0 0.0
2018-Jun-07 23:29S 24°05' W 046°20'0 0.0
2018-Jun-07 22:59S 24°05' W 046°20'0 0.0
2018-Jun-07 22:29S 24°05' W 046°20'0 0.0
2018-Jun-07 21:59S 24°05' W 046°20'0 0.0
2018-Jun-07 21:29S 24°05' W 046°20'0 0.0
2018-Jun-07 20:59S 24°05' W 046°20'0 0.0
2018-Jun-07 20:23S 24°05' W 046°20'0 0.0
2018-Jun-07 19:59S 24°05' W 046°20'0 0.0
2018-Jun-07 19:29S 24°05' W 046°20'0 0.0
2018-Jun-07 18:59S 24°05' W 046°20'0 0.0
2018-Jun-07 18:20S 24°05' W 046°20'0 0.0
2018-Jun-07 17:59S 24°05' W 046°20'0 0.0
2018-Jun-07 17:29S 24°05' W 046°20'0 0.0
2018-Jun-07 16:59S 24°05' W 046°20'0 0.0
2018-Jun-07 16:29S 24°05' W 046°20'0 0.0
2018-Jun-07 15:59S 24°05' W 046°20'0 0.0
2018-Jun-07 15:20S 24°05' W 046°20'0 0.0
2018-Jun-07 14:59S 24°05' W 046°20'0 0.0
2018-Jun-07 14:29S 24°05' W 046°20'0 0.0
2018-Jun-07 13:59S 24°05' W 046°20'0 0.0
2018-Jun-07 13:29S 24°05' W 046°20'0 0.0
2018-Jun-07 12:53S 24°05' W 046°20'0 0.1
2018-Jun-07 12:30S 24°05' W 046°20'1 1.9
2018-Jun-07 12:00S 24°04' W 046°21'3 5.6
2018-Jun-07 11:30S 24°06' W 046°22'3 5.8
2018-Jun-07 11:00S 24°09' W 046°22'5 9.5
2018-Jun-07 10:30S 24°13' W 046°18'0 0.4
2018-Jun-07 09:55S 24°13' W 046°18'0 0.0
2018-Jun-07 09:28S 24°13' W 046°18'0 0.0
2018-Jun-07 08:52S 24°13' W 046°18'0 0.0
2018-Jun-07 08:19S 24°13' W 046°18'0 0.0
2018-Jun-07 07:58S 24°13' W 046°18'0 0.0
2018-Jun-07 07:28S 24°13' W 046°18'0 0.0
2018-Jun-07 06:58S 24°13' W 046°18'0 0.0
2018-Jun-07 06:28S 24°13' W 046°18'0 0.0
2018-Jun-07 05:55S 24°13' W 046°18'0 0.0
2018-Jun-07 05:28S 24°13' W 046°18'0 0.0
2018-Jun-07 04:58S 24°13' W 046°18'0 0.0
2018-Jun-07 04:28S 24°13' W 046°18'0 0.0
2018-Jun-07 03:58S 24°13' W 046°18'0 0.0
2018-Jun-07 03:28S 24°13' W 046°18'0 0.0
2018-Jun-07 02:58S 24°13' W 046°18'0 0.0
2018-Jun-07 02:22S 24°13' W 046°18'0 0.0
2018-Jun-07 01:58S 24°13' W 046°18'0 0.0
2018-Jun-07 01:28S 24°13' W 046°18'0 0.0
2018-Jun-07 00:58S 24°13' W 046°18'0 0.0
2018-Jun-07 00:28S 24°13' W 046°18'  

Dump ship's entire track history